PWSweather.com
Personal Weather Stations
Station Observations
TUGLIE
Tuglie Meteo, TuglieIT

Tuglie MeteoTuglieIT

Lat: 40.0726, Lon: 18.1016

Elevation: 270

Station Type: La Crosse WS-2300

http://www.tuglie.com/situazione.asp

Latest ConditionsUpdated 2:40:08 PM GMT+01:01 Sunday, May 19, 2019
Currently Today's Max Today's Min Today's Average
Temperature 73.2°F22.9°C 73.4°F23.0°C 59.4°F15.2°C 64.3°F17.9°C
Dew Point 54.0°F12.2°C 60.7°F15.9°C 54.0°F12.2°C 58.1°F14.5°C
Winds 5.7 mph W9.2 kmh W 9.2 mph -14.8 kmh - - 4.1 mph 6.6 kmh
Wind Gusts 8.3 mph13.4 kmh 16.3 mph26.2 kmh - -
Humidity 51% 91% 51% 81%
Pressure 29.68 in1005.1 mb 29.73 in1006.8 mb 29.63 in1003.4 mb -
Hour Temp Dew Point Humidity Winds Wind Gusts Pressure Precip Precip Rate Daily Precip Total
02:40 PM 73.2°F22.9°C 54.0°F12.2°C 51% 5.7 mph W9.2 kmh W 8.3 mph13.4 kmh 29.68 in1005.1 mb - 0.00 in0.0 mm 0.00 in0.0 mm
02:30 PM 73.2°F22.9°C 54.0°F12.2°C 51% 5.0 mph WSW8.0 kmh WSW 5.8 mph9.3 kmh 29.68 in1005.1 mb - 0.00 in0.0 mm 0.00 in0.0 mm
02:20 PM 73.4°F23.0°C 55.2°F12.9°C 53% 5.0 mph SW8.0 kmh SW 7.8 mph12.6 kmh 29.67 in1004.7 mb - 0.00 in0.0 mm 0.00 in0.0 mm
02:10 PM 73.0°F22.8°C 56.9°F13.8°C 57% 3.4 mph W5.5 kmh W 10.1 mph16.3 kmh 29.67 in1004.7 mb - 0.00 in0.0 mm 0.00 in0.0 mm
02:00 PM 72.3°F22.4°C 56.2°F13.4°C 57% 6.3 mph SW10.1 kmh SW 11.6 mph18.7 kmh 29.67 in1004.7 mb - 0.00 in0.0 mm 0.00 in0.0 mm
01:50 PM 71.8°F22.1°C 57.6°F14.2°C 61% 4.4 mph WSW7.1 kmh WSW 6.0 mph9.7 kmh 29.66 in1004.4 mb - 0.00 in0.0 mm 0.00 in0.0 mm
01:40 PM 72.1°F22.3°C 58.3°F14.6°C 62% 7.6 mph SW12.2 kmh SW 8.0 mph12.9 kmh 29.66 in1004.4 mb - 0.00 in0.0 mm 0.00 in0.0 mm
01:30 PM 72.3°F22.4°C 58.6°F14.8°C 62% 4.9 mph W7.9 kmh W 10.1 mph16.3 kmh 29.66 in1004.4 mb - 0.00 in0.0 mm 0.00 in0.0 mm
01:20 PM 72.1°F22.3°C 57.9°F14.4°C 61% 3.5 mph SW5.6 kmh SW 7.6 mph12.2 kmh 29.66 in1004.4 mb - 0.00 in0.0 mm 0.00 in0.0 mm
01:10 PM 71.9°F22.2°C 57.7°F14.3°C 61% 3.6 mph SW5.8 kmh SW 6.7 mph10.8 kmh 29.65 in1004.1 mb - 0.00 in0.0 mm 0.00 in0.0 mm
01:00 PM 72.1°F22.3°C 58.4°F14.7°C 62% 4.1 mph WSW6.6 kmh WSW 4.5 mph7.2 kmh 29.65 in1004.1 mb - 0.00 in0.0 mm 0.00 in0.0 mm
12:50 PM 71.8°F22.1°C 58.1°F14.5°C 62% 2.3 mph WSW3.7 kmh WSW 6.9 mph11.1 kmh 29.65 in1004.1 mb - 0.00 in0.0 mm 0.00 in0.0 mm
12:40 PM 70.6°F21.4°C 59.2°F15.1°C 67% 2.3 mph SSW3.7 kmh SSW 6.9 mph11.1 kmh 29.64 in1003.7 mb - 0.00 in0.0 mm 0.00 in0.0 mm
12:30 PM 70.5°F21.4°C 59.4°F15.2°C 68% 6.7 mph WSW10.8 kmh WSW 8.9 mph14.3 kmh 29.65 in1004.1 mb - 0.00 in0.0 mm 0.00 in0.0 mm
12:20 PM 69.4°F20.8°C 60.7°F15.9°C 74% 1.9 mph SW3.1 kmh SW 5.8 mph9.3 kmh 29.64 in1003.7 mb - 0.00 in0.0 mm 0.00 in0.0 mm
12:10 PM 68.5°F20.3°C 60.3°F15.7°C 75% 2.1 mph WSW3.4 kmh WSW 3.6 mph5.8 kmh 29.64 in1003.7 mb - 0.00 in0.0 mm 0.00 in0.0 mm
12:00 PM 67.3°F19.6°C 60.2°F15.7°C 78% 4.2 mph WSW6.8 kmh WSW 9.2 mph14.8 kmh 29.65 in1004.1 mb - 0.00 in0.0 mm 0.00 in0.0 mm
11:50 AM 66.7°F19.3°C 60.0°F15.6°C 79% 6.5 mph W10.5 kmh W 6.3 mph10.1 kmh 29.65 in1004.1 mb - 0.00 in0.0 mm 0.00 in0.0 mm
11:40 AM 66.2°F19.0°C 59.8°F15.4°C 80% 4.9 mph SW7.9 kmh SW 8.0 mph12.9 kmh 29.65 in1004.1 mb - 0.00 in0.0 mm 0.00 in0.0 mm
11:30 AM 66.6°F19.2°C 60.2°F15.7°C 80% 6.7 mph SW10.8 kmh SW 9.2 mph14.8 kmh 29.64 in1003.7 mb - 0.00 in0.0 mm 0.00 in0.0 mm
11:20 AM 66.3°F19.1°C 59.9°F15.5°C 80% 2.6 mph W4.2 kmh W 6.9 mph11.1 kmh 29.64 in1003.7 mb - 0.00 in0.0 mm 0.00 in0.0 mm
11:10 AM 65.8°F18.8°C 59.8°F15.4°C 81% 3.2 mph WSW5.1 kmh WSW 9.4 mph15.1 kmh 29.64 in1003.7 mb - 0.00 in0.0 mm 0.00 in0.0 mm
11:00 AM 65.8°F18.8°C 59.8°F15.4°C 81% 7.0 mph SW11.3 kmh SW 8.7 mph14.0 kmh 29.64 in1003.7 mb - 0.00 in0.0 mm 0.00 in0.0 mm
10:50 AM 65.5°F18.6°C 59.8°F15.4°C 82% 4.4 mph SW7.1 kmh SW 7.4 mph11.9 kmh 29.64 in1003.7 mb - 0.00 in0.0 mm 0.00 in0.0 mm
10:40 AM 65.3°F18.5°C 59.7°F15.4°C 82% 7.4 mph WSW11.9 kmh WSW 9.6 mph15.4 kmh 29.64 in1003.7 mb - 0.00 in0.0 mm 0.00 in0.0 mm
10:30 AM 65.3°F18.5°C 59.3°F15.2°C 81% 5.7 mph SW9.2 kmh SW 8.9 mph14.3 kmh 29.64 in1003.7 mb - 0.00 in0.0 mm 0.00 in0.0 mm
10:20 AM 65.5°F18.6°C 59.5°F15.3°C 81% 5.2 mph SSW8.4 kmh SSW 7.6 mph12.2 kmh 29.64 in1003.7 mb - 0.00 in0.0 mm 0.00 in0.0 mm
10:10 AM 65.5°F18.6°C 59.2°F15.1°C 80% 6.4 mph SSW10.3 kmh SSW 6.7 mph10.8 kmh 29.63 in1003.4 mb - 0.00 in0.0 mm 0.00 in0.0 mm
10:00 AM 65.8°F18.8°C 59.1°F15.1°C 79% 7.1 mph S11.4 kmh S 9.4 mph15.1 kmh 29.63 in1003.4 mb - 0.00 in0.0 mm 0.00 in0.0 mm
09:50 AM 66.2°F19.0°C 59.1°F15.1°C 78% 4.6 mph WSW7.4 kmh WSW 6.9 mph11.1 kmh 29.63 in1003.4 mb - 0.00 in0.0 mm 0.00 in0.0 mm
09:40 AM 66.6°F19.2°C 59.1°F15.1°C 77% 6.5 mph SW10.5 kmh SW 6.7 mph10.8 kmh 29.63 in1003.4 mb - 0.00 in0.0 mm 0.00 in0.0 mm
09:30 AM 67.3°F19.6°C 59.4°F15.2°C 76% 9.2 mph S14.8 kmh S 13.6 mph21.9 kmh 29.63 in1003.4 mb - 0.00 in0.0 mm 0.00 in0.0 mm
09:20 AM 66.7°F19.3°C 59.7°F15.4°C 78% 3.8 mph S6.1 kmh S 7.4 mph11.9 kmh 29.63 in1003.4 mb - 0.00 in0.0 mm 0.00 in0.0 mm
09:10 AM 65.7°F18.7°C 59.0°F15.0°C 79% 7.2 mph S11.6 kmh S 6.9 mph11.1 kmh 29.64 in1003.7 mb - 0.00 in0.0 mm 0.00 in0.0 mm
09:00 AM 65.5°F18.6°C 58.8°F14.9°C 79% 3.4 mph S5.5 kmh S 4.7 mph7.6 kmh 29.64 in1003.7 mb - 0.00 in0.0 mm 0.00 in0.0 mm
08:50 AM 65.7°F18.7°C 58.3°F14.6°C 77% 5.9 mph S9.5 kmh S 7.4 mph11.9 kmh 29.64 in1003.7 mb - 0.00 in0.0 mm 0.00 in0.0 mm
08:40 AM 66.3°F19.1°C 58.9°F14.9°C 77% 8.7 mph S14.0 kmh S 12.1 mph19.5 kmh 29.64 in1003.7 mb - 0.00 in0.0 mm 0.00 in0.0 mm
08:30 AM 66.2°F19.0°C 58.8°F14.9°C 77% 4.0 mph S6.4 kmh S 8.5 mph13.7 kmh 29.65 in1004.1 mb - 0.00 in0.0 mm 0.00 in0.0 mm
08:20 AM 66.0°F18.9°C 58.6°F14.8°C 77% 8.5 mph S13.7 kmh S 16.3 mph26.2 kmh 29.64 in1003.7 mb - 0.00 in0.0 mm 0.00 in0.0 mm
08:10 AM 65.5°F18.6°C 58.8°F14.9°C 79% 6.3 mph SW10.1 kmh SW 9.2 mph14.8 kmh 29.65 in1004.1 mb - 0.00 in0.0 mm 0.00 in0.0 mm
08:00 AM 65.1°F18.4°C 58.4°F14.7°C 79% 7.2 mph WSW11.6 kmh WSW 12.7 mph20.4 kmh 29.66 in1004.4 mb - 0.00 in0.0 mm 0.00 in0.0 mm
07:50 AM 65.1°F18.4°C 58.4°F14.7°C 79% 6.2 mph SSW10.0 kmh SSW 11.6 mph18.7 kmh 29.66 in1004.4 mb - 0.00 in0.0 mm 0.00 in0.0 mm
07:40 AM 65.1°F18.4°C 58.4°F14.7°C 79% 4.6 mph SSW7.4 kmh SSW 6.7 mph10.8 kmh 29.65 in1004.1 mb - 0.00 in0.0 mm 0.00 in0.0 mm
07:30 AM 64.8°F18.2°C 59.1°F15.1°C 82% 5.0 mph S8.0 kmh S 10.3 mph16.6 kmh 29.65 in1004.1 mb - 0.00 in0.0 mm 0.00 in0.0 mm
07:20 AM 63.7°F17.6°C 58.8°F14.9°C 84% 2.2 mph SW3.5 kmh SW 7.4 mph11.9 kmh 29.66 in1004.4 mb - 0.00 in0.0 mm 0.00 in0.0 mm
07:10 AM 63.5°F17.5°C 58.9°F14.9°C 85% 6.3 mph SSW10.1 kmh SSW 6.7 mph10.8 kmh 29.66 in1004.4 mb - 0.00 in0.0 mm 0.00 in0.0 mm
07:00 AM 63.2°F17.3°C 58.9°F14.9°C 86% 4.5 mph SSW7.2 kmh SSW 5.6 mph9.0 kmh 29.65 in1004.1 mb - 0.00 in0.0 mm 0.00 in0.0 mm
06:50 AM 63.1°F17.3°C 58.9°F14.9°C 86% 3.9 mph SW6.3 kmh SW 7.8 mph12.6 kmh 29.66 in1004.4 mb - 0.00 in0.0 mm 0.00 in0.0 mm
06:40 AM 62.8°F17.1°C 58.9°F14.9°C 87% 0.6 mph S1.0 kmh S 2.9 mph4.7 kmh 29.66 in1004.4 mb - 0.00 in0.0 mm 0.00 in0.0 mm
06:30 AM 62.5°F16.9°C 58.6°F14.8°C 87% 2.5 mph S4.0 kmh S 6.7 mph10.8 kmh 29.66 in1004.4 mb - 0.00 in0.0 mm 0.00 in0.0 mm
06:20 AM 62.4°F16.9°C 58.8°F14.9°C 88% 2.0 mph SW3.2 kmh SW 8.5 mph13.7 kmh 29.66 in1004.4 mb - 0.00 in0.0 mm 0.00 in0.0 mm
06:10 AM 62.2°F16.8°C 58.6°F14.8°C 88% 3.1 mph S5.0 kmh S 6.0 mph9.7 kmh 29.66 in1004.4 mb - 0.00 in0.0 mm 0.00 in0.0 mm
06:00 AM 61.9°F16.6°C 58.6°F14.8°C 89% 4.3 mph S6.9 kmh S 7.4 mph11.9 kmh 29.66 in1004.4 mb - 0.00 in0.0 mm 0.00 in0.0 mm
05:50 AM 61.5°F16.4°C 58.9°F14.9°C 91% 4.0 mph SSW6.4 kmh SSW 5.4 mph8.7 kmh 29.66 in1004.4 mb - 0.00 in0.0 mm 0.00 in0.0 mm
05:40 AM 60.6°F15.9°C 57.7°F14.3°C 90% 4.1 mph S6.6 kmh S 6.9 mph11.1 kmh 29.66 in1004.4 mb - 0.00 in0.0 mm 0.00 in0.0 mm
05:30 AM 60.4°F15.8°C 57.7°F14.3°C 91% 2.0 mph SSE3.2 kmh SSE -- 29.66 in1004.4 mb - 0.00 in0.0 mm 0.00 in0.0 mm
05:20 AM 60.1°F15.6°C 57.4°F14.1°C 91% 0.7 mph SE1.1 kmh SE 3.6 mph5.8 kmh 29.65 in1004.1 mb - 0.00 in0.0 mm 0.00 in0.0 mm
05:10 AM 59.9°F15.5°C 57.3°F14.1°C 91% 0.6 mph SE1.0 kmh SE 4.2 mph6.8 kmh 29.65 in1004.1 mb - 0.00 in0.0 mm 0.00 in0.0 mm
05:00 AM 59.5°F15.3°C 56.9°F13.8°C 91% 1.3 mph SE2.1 kmh SE 4.5 mph7.2 kmh 29.65 in1004.1 mb - 0.00 in0.0 mm 0.00 in0.0 mm
04:50 AM 59.4°F15.2°C 56.7°F13.7°C 91% 0.5 mph SE0.8 kmh SE -- 29.65 in1004.1 mb - 0.00 in0.0 mm 0.00 in0.0 mm
04:40 AM 59.4°F15.2°C 56.8°F13.8°C 91% Calm Calm -- 29.66 in1004.4 mb - 0.00 in0.0 mm 0.00 in0.0 mm
04:30 AM 59.5°F15.3°C 56.9°F13.8°C 91% Calm Calm -- 29.66 in1004.4 mb - 0.00 in0.0 mm 0.00 in0.0 mm
04:20 AM 59.6°F15.3°C 56.9°F13.8°C 91% 0.2 mph SE0.3 kmh SE 5.1 mph8.2 kmh 29.66 in1004.4 mb - 0.00 in0.0 mm 0.00 in0.0 mm
04:10 AM 59.5°F15.3°C 56.6°F13.7°C 90% 1.9 mph S3.1 kmh S 4.0 mph6.4 kmh 29.67 in1004.7 mb - 0.00 in0.0 mm 0.00 in0.0 mm
04:00 AM 59.5°F15.3°C 56.6°F13.7°C 90% 0.2 mph ESE0.3 kmh ESE 2.2 mph3.5 kmh 29.68 in1005.1 mb - 0.00 in0.0 mm 0.00 in0.0 mm
03:50 AM 59.5°F15.3°C 56.6°F13.7°C 90% Calm Calm -- 29.68 in1005.1 mb - 0.00 in0.0 mm 0.00 in0.0 mm
03:40 AM 59.5°F15.3°C 56.6°F13.7°C 90% 0.9 mph SE1.4 kmh SE 5.1 mph8.2 kmh 29.68 in1005.1 mb - 0.00 in0.0 mm 0.00 in0.0 mm
03:30 AM 59.5°F15.3°C 56.6°F13.7°C 90% 0.3 mph SSE0.5 kmh SSE 2.9 mph4.7 kmh 29.69 in1005.4 mb - 0.00 in0.0 mm 0.00 in0.0 mm
03:20 AM 59.9°F15.5°C 57.0°F13.9°C 90% 0.1 mph SSE0.2 kmh SSE 4.2 mph6.8 kmh 29.69 in1005.4 mb - 0.00 in0.0 mm 0.00 in0.0 mm
03:10 AM 60.1°F15.6°C 57.1°F13.9°C 90% 2.3 mph S3.7 kmh S 3.6 mph5.8 kmh 29.69 in1005.4 mb - 0.00 in0.0 mm 0.00 in0.0 mm
03:00 AM 60.3°F15.7°C 57.4°F14.1°C 90% 0.7 mph SSW1.1 kmh SSW 5.8 mph9.3 kmh 29.70 in1005.8 mb - 0.00 in0.0 mm 0.00 in0.0 mm
02:50 AM 60.4°F15.8°C 57.5°F14.2°C 90% 5.6 mph S9.0 kmh S 8.5 mph13.7 kmh 29.70 in1005.8 mb - 0.00 in0.0 mm 0.00 in0.0 mm
02:40 AM 60.4°F15.8°C 57.5°F14.2°C 90% 3.9 mph SSW6.3 kmh SSW 6.9 mph11.1 kmh 29.70 in1005.8 mb - 0.00 in0.0 mm 0.00 in0.0 mm
02:30 AM 60.6°F15.9°C 57.7°F14.3°C 90% 4.7 mph SSE7.6 kmh SSE 6.5 mph10.5 kmh 29.70 in1005.8 mb - 0.00 in0.0 mm 0.00 in0.0 mm
02:20 AM 60.6°F15.9°C 57.7°F14.3°C 90% 4.5 mph SSE7.2 kmh SSE 7.6 mph12.2 kmh 29.70 in1005.8 mb - 0.00 in0.0 mm 0.00 in0.0 mm
02:10 AM 60.6°F15.9°C 57.7°F14.3°C 90% 4.6 mph SSW7.4 kmh SSW 6.5 mph10.5 kmh 29.71 in1006.1 mb - 0.00 in0.0 mm 0.00 in0.0 mm
02:00 AM 60.6°F15.9°C 57.7°F14.3°C 90% 2.8 mph S4.5 kmh S 6.0 mph9.7 kmh 29.71 in1006.1 mb - 0.00 in0.0 mm 0.00 in0.0 mm
01:50 AM 60.6°F15.9°C 57.7°F14.3°C 90% 5.3 mph S8.5 kmh S 6.3 mph10.1 kmh 29.71 in1006.1 mb - 0.00 in0.0 mm 0.00 in0.0 mm
01:40 AM 60.4°F15.8°C 57.5°F14.2°C 90% 3.4 mph SSE5.5 kmh SSE 4.7 mph7.6 kmh 29.71 in1006.1 mb - 0.00 in0.0 mm 0.00 in0.0 mm
01:30 AM 60.4°F15.8°C 57.5°F14.2°C 90% 2.8 mph SSE4.5 kmh SSE 6.9 mph11.1 kmh 29.72 in1006.4 mb - 0.00 in0.0 mm 0.00 in0.0 mm
01:20 AM 60.4°F15.8°C 57.5°F14.2°C 90% 2.8 mph SW4.5 kmh SW 3.8 mph6.1 kmh 29.73 in1006.8 mb - 0.00 in0.0 mm 0.00 in0.0 mm
01:00 AM 60.2°F15.7°C 57.3°F14.1°C 90% 4.8 mph S7.7 kmh S 8.9 mph14.3 kmh 29.72 in1006.4 mb - 0.00 in0.0 mm 0.00 in0.0 mm
12:50 AM 60.3°F15.7°C 57.3°F14.1°C 90% 4.3 mph S6.9 kmh S 6.0 mph9.7 kmh 29.72 in1006.4 mb - 0.00 in0.0 mm 0.00 in0.0 mm
12:40 AM 60.2°F15.7°C 57.3°F14.1°C 90% 4.8 mph SSE7.7 kmh SSE 11.8 mph19.0 kmh 29.72 in1006.4 mb - 0.00 in0.0 mm 0.00 in0.0 mm
12:30 AM 60.1°F15.6°C 57.1°F13.9°C 90% 7.8 mph SSW12.6 kmh SSW 8.7 mph14.0 kmh 29.73 in1006.8 mb - 0.00 in0.0 mm 0.00 in0.0 mm
12:20 AM 60.1°F15.6°C 57.1°F13.9°C 90% 8.7 mph S14.0 kmh S 13.6 mph21.9 kmh 29.73 in1006.8 mb - 0.00 in0.0 mm 0.00 in0.0 mm
12:10 AM 59.7°F15.4°C 56.8°F13.8°C 90% 9.1 mph S14.6 kmh S 10.5 mph16.9 kmh 29.73 in1006.8 mb - 0.00 in0.0 mm 0.00 in0.0 mm
12:00 AM 59.9°F15.5°C 57.0°F13.9°C 90% 3.2 mph SSE5.1 kmh SSE 4.2 mph6.8 kmh 29.73 in1006.8 mb - 0.00 in0.0 mm 0.00 in0.0 mm